sensor_id;sensor_type;location;lat;lon;timestamp;P1;durP1;ratioP1;P2;durP2;ratioP2
1370;SDS011;14306;49.942;11.570;2023-04-24T00:00:42;3.43;;;3.03;;
1370;SDS011;14306;49.942;11.570;2023-04-24T00:03:12;4.10;;;2.80;;
1370;SDS011;14306;49.942;11.570;2023-04-24T00:05:41;5.10;;;2.70;;
1370;SDS011;14306;49.942;11.570;2023-04-24T00:08:10;3.40;;;2.87;;
1370;SDS011;14306;49.942;11.570;2023-04-24T00:10:39;3.20;;;2.37;;
1370;SDS011;14306;49.942;11.570;2023-04-24T00:13:08;3.17;;;2.43;;
1370;SDS011;14306;49.942;11.570;2023-04-24T00:15:37;2.80;;;2.57;;
1370;SDS011;14306;49.942;11.570;2023-04-24T00:18:05;3.40;;;2.20;;
1370;SDS011;14306;49.942;11.570;2023-04-24T00:20:36;5.60;;;2.50;;
1370;SDS011;14306;49.942;11.570;2023-04-24T00:23:05;3.23;;;2.17;;
1370;SDS011;14306;49.942;11.570;2023-04-24T00:25:34;3.50;;;2.63;;
1370;SDS011;14306;49.942;11.570;2023-04-24T00:28:02;2.23;;;2.03;;
1370;SDS011;14306;49.942;11.570;2023-04-24T00:30:31;3.93;;;2.23;;
1370;SDS011;14306;49.942;11.570;2023-04-24T00:32:59;4.93;;;2.87;;
1370;SDS011;14306;49.942;11.570;2023-04-24T00:35:28;2.83;;;2.10;;
1370;SDS011;14306;49.942;11.570;2023-04-24T00:37:58;3.67;;;2.60;;
1370;SDS011;14306;49.942;11.570;2023-04-24T00:40:27;5.90;;;2.90;;
1370;SDS011;14306;49.942;11.570;2023-04-24T00:42:56;2.47;;;2.27;;
1370;SDS011;14306;49.942;11.570;2023-04-24T00:45:25;2.80;;;2.40;;
1370;SDS011;14306;49.942;11.570;2023-04-24T00:47:53;2.90;;;2.50;;
1370;SDS011;14306;49.942;11.570;2023-04-24T00:50:23;4.10;;;2.37;;
1370;SDS011;14306;49.942;11.570;2023-04-24T00:52:51;7.93;;;2.87;;
1370;SDS011;14306;49.942;11.570;2023-04-24T00:55:21;3.50;;;3.20;;
1370;SDS011;14306;49.942;11.570;2023-04-24T00:57:50;3.23;;;2.90;;
1370;SDS011;14306;49.942;11.570;2023-04-24T01:00:19;6.37;;;2.63;;
1370;SDS011;14306;49.942;11.570;2023-04-24T01:02:49;3.80;;;2.53;;
1370;SDS011;14306;49.942;11.570;2023-04-24T01:05:20;4.40;;;2.33;;
1370;SDS011;14306;49.942;11.570;2023-04-24T01:07:48;3.20;;;2.80;;
1370;SDS011;14306;49.942;11.570;2023-04-24T01:10:17;4.43;;;2.93;;
1370;SDS011;14306;49.942;11.570;2023-04-24T01:12:49;2.57;;;2.30;;
1370;SDS011;14306;49.942;11.570;2023-04-24T01:15:18;3.10;;;2.07;;
1370;SDS011;14306;49.942;11.570;2023-04-24T01:17:47;4.53;;;2.20;;
1370;SDS011;14306;49.942;11.570;2023-04-24T01:20:16;2.50;;;2.30;;
1370;SDS011;14306;49.942;11.570;2023-04-24T01:22:47;4.50;;;2.73;;
1370;SDS011;14306;49.942;11.570;2023-04-24T01:25:16;4.07;;;2.80;;
1370;SDS011;14306;49.942;11.570;2023-04-24T01:27:44;2.70;;;2.30;;
1370;SDS011;14306;49.942;11.570;2023-04-24T01:30:13;2.67;;;2.47;;
1370;SDS011;14306;49.942;11.570;2023-04-24T01:32:42;4.47;;;3.20;;
1370;SDS011;14306;49.942;11.570;2023-04-24T01:35:12;4.80;;;3.80;;
1370;SDS011;14306;49.942;11.570;2023-04-24T01:37:40;3.80;;;2.87;;
1370;SDS011;14306;49.942;11.570;2023-04-24T01:40:11;5.40;;;3.07;;
1370;SDS011;14306;49.942;11.570;2023-04-24T01:42:40;4.23;;;2.97;;
1370;SDS011;14306;49.942;11.570;2023-04-24T01:45:10;4.60;;;3.10;;
1370;SDS011;14306;49.942;11.570;2023-04-24T01:47:39;4.23;;;2.93;;
1370;SDS011;14306;49.942;11.570;2023-04-24T01:50:07;4.87;;;3.10;;
1370;SDS011;14306;49.942;11.570;2023-04-24T01:52:37;4.63;;;3.37;;
1370;SDS011;14306;49.942;11.570;2023-04-24T01:55:06;4.83;;;3.03;;
1370;SDS011;14306;49.942;11.570;2023-04-24T01:57:36;13.13;;;3.93;;
1370;SDS011;14306;49.942;11.570;2023-04-24T02:00:05;7.10;;;3.70;;
1370;SDS011;14306;49.942;11.570;2023-04-24T02:02:34;4.57;;;3.07;;
1370;SDS011;14306;49.942;11.570;2023-04-24T02:05:05;6.40;;;3.67;;
1370;SDS011;14306;49.942;11.570;2023-04-24T02:07:35;6.30;;;4.00;;
1370;SDS011;14306;49.942;11.570;2023-04-24T02:10:03;5.90;;;3.80;;
1370;SDS011;14306;49.942;11.570;2023-04-24T02:12:33;7.07;;;3.83;;
1370;SDS011;14306;49.942;11.570;2023-04-24T02:15:03;5.80;;;3.70;;
1370;SDS011;14306;49.942;11.570;2023-04-24T02:17:32;5.77;;;3.57;;
1370;SDS011;14306;49.942;11.570;2023-04-24T02:20:02;7.10;;;4.27;;
1370;SDS011;14306;49.942;11.570;2023-04-24T02:22:31;4.60;;;3.70;;
1370;SDS011;14306;49.942;11.570;2023-04-24T02:24:59;7.00;;;4.53;;
1370;SDS011;14306;49.942;11.570;2023-04-24T02:27:28;7.83;;;3.97;;
1370;SDS011;14306;49.942;11.570;2023-04-24T02:29:56;8.77;;;4.60;;
1370;SDS011;14306;49.942;11.570;2023-04-24T02:32:26;10.70;;;5.20;;
1370;SDS011;14306;49.942;11.570;2023-04-24T02:34:55;6.70;;;4.43;;
1370;SDS011;14306;49.942;11.570;2023-04-24T02:37:23;10.30;;;5.23;;
1370;SDS011;14306;49.942;11.570;2023-04-24T02:39:51;8.93;;;4.63;;
1370;SDS011;14306;49.942;11.570;2023-04-24T02:42:20;6.63;;;4.27;;
1370;SDS011;14306;49.942;11.570;2023-04-24T02:44:48;6.40;;;4.40;;
1370;SDS011;14306;49.942;11.570;2023-04-24T02:47:17;6.03;;;5.10;;
1370;SDS011;14306;49.942;11.570;2023-04-24T02:49:48;7.00;;;4.90;;
1370;SDS011;14306;49.942;11.570;2023-04-24T02:52:16;6.43;;;4.67;;
1370;SDS011;14306;49.942;11.570;2023-04-24T02:54:44;11.93;;;4.90;;
1370;SDS011;14306;49.942;11.570;2023-04-24T02:57:13;7.43;;;5.33;;
1370;SDS011;14306;49.942;11.570;2023-04-24T02:59:42;9.33;;;5.50;;
1370;SDS011;14306;49.942;11.570;2023-04-24T03:02:10;6.77;;;4.77;;
1370;SDS011;14306;49.942;11.570;2023-04-24T03:04:39;6.23;;;4.57;;
1370;SDS011;14306;49.942;11.570;2023-04-24T03:07:11;8.13;;;4.63;;
1370;SDS011;14306;49.942;11.570;2023-04-24T03:09:40;7.43;;;5.30;;
1370;SDS011;14306;49.942;11.570;2023-04-24T03:12:16;8.47;;;5.80;;
1370;SDS011;14306;49.942;11.570;2023-04-24T03:14:45;6.90;;;5.93;;
1370;SDS011;14306;49.942;11.570;2023-04-24T03:17:13;8.10;;;5.80;;
1370;SDS011;14306;49.942;11.570;2023-04-24T03:19:41;7.63;;;5.83;;
1370;SDS011;14306;49.942;11.570;2023-04-24T03:22:12;11.40;;;6.93;;
1370;SDS011;14306;49.942;11.570;2023-04-24T03:24:40;9.77;;;6.50;;
1370;SDS011;14306;49.942;11.570;2023-04-24T03:27:08;8.43;;;6.07;;
1370;SDS011;14306;49.942;11.570;2023-04-24T03:29:36;8.43;;;5.47;;
1370;SDS011;14306;49.942;11.570;2023-04-24T03:32:04;9.07;;;5.60;;
1370;SDS011;14306;49.942;11.570;2023-04-24T03:34:32;7.57;;;6.10;;
1370;SDS011;14306;49.942;11.570;2023-04-24T03:37:01;8.10;;;5.80;;
1370;SDS011;14306;49.942;11.570;2023-04-24T03:39:31;9.40;;;6.63;;
1370;SDS011;14306;49.942;11.570;2023-04-24T03:41:59;9.23;;;6.50;;
1370;SDS011;14306;49.942;11.570;2023-04-24T03:44:27;8.90;;;5.97;;
1370;SDS011;14306;49.942;11.570;2023-04-24T03:46:55;9.80;;;5.87;;
1370;SDS011;14306;49.942;11.570;2023-04-24T03:49:25;10.07;;;6.73;;
1370;SDS011;14306;49.942;11.570;2023-04-24T03:51:54;7.87;;;6.57;;
1370;SDS011;14306;49.942;11.570;2023-04-24T03:54:22;7.93;;;6.17;;
1370;SDS011;14306;49.942;11.570;2023-04-24T03:56:52;8.07;;;6.07;;
1370;SDS011;14306;49.942;11.570;2023-04-24T03:59:21;10.27;;;6.53;;
1370;SDS011;14306;49.942;11.570;2023-04-24T04:01:50;10.73;;;6.10;;
1370;SDS011;14306;49.942;11.570;2023-04-24T04:04:19;10.10;;;5.77;;
1370;SDS011;14306;49.942;11.570;2023-04-24T04:06:47;9.97;;;6.83;;
1370;SDS011;14306;49.942;11.570;2023-04-24T04:09:16;7.60;;;6.17;;
1370;SDS011;14306;49.942;11.570;2023-04-24T04:11:44;8.03;;;6.67;;
1370;SDS011;14306;49.942;11.570;2023-04-24T04:14:15;6.30;;;5.70;;
1370;SDS011;14306;49.942;11.570;2023-04-24T04:16:43;8.00;;;6.03;;
1370;SDS011;14306;49.942;11.570;2023-04-24T04:19:12;8.73;;;6.17;;
1370;SDS011;14306;49.942;11.570;2023-04-24T04:21:41;11.60;;;6.17;;
1370;SDS011;14306;49.942;11.570;2023-04-24T04:24:09;6.60;;;5.43;;
1370;SDS011;14306;49.942;11.570;2023-04-24T04:26:37;9.13;;;5.23;;
1370;SDS011;14306;49.942;11.570;2023-04-24T04:29:05;6.93;;;4.87;;
1370;SDS011;14306;49.942;11.570;2023-04-24T04:31:35;6.27;;;5.00;;
1370;SDS011;14306;49.942;11.570;2023-04-24T04:34:03;5.13;;;4.63;;
1370;SDS011;14306;49.942;11.570;2023-04-24T04:36:32;8.07;;;5.20;;
1370;SDS011;14306;49.942;11.570;2023-04-24T04:39:03;5.40;;;4.53;;
1370;SDS011;14306;49.942;11.570;2023-04-24T04:41:32;6.73;;;5.50;;
1370;SDS011;14306;49.942;11.570;2023-04-24T04:44:02;7.67;;;5.50;;
1370;SDS011;14306;49.942;11.570;2023-04-24T04:46:31;7.73;;;5.00;;
1370;SDS011;14306;49.942;11.570;2023-04-24T04:49:02;6.73;;;4.70;;
1370;SDS011;14306;49.942;11.570;2023-04-24T04:51:30;8.23;;;4.23;;
1370;SDS011;14306;49.942;11.570;2023-04-24T04:53:58;5.53;;;3.83;;
1370;SDS011;14306;49.942;11.570;2023-04-24T04:56:27;3.20;;;2.80;;
1370;SDS011;14306;49.942;11.570;2023-04-24T04:58:56;3.00;;;2.57;;
1370;SDS011;14306;49.942;11.570;2023-04-24T05:01:25;5.23;;;2.73;;
1370;SDS011;14306;49.942;11.570;2023-04-24T05:03:54;3.23;;;2.10;;
1370;SDS011;14306;49.942;11.570;2023-04-24T05:06:24;2.00;;;1.80;;
1370;SDS011;14306;49.942;11.570;2023-04-24T05:08:52;4.10;;;1.97;;
1370;SDS011;14306;49.942;11.570;2023-04-24T05:11:24;3.13;;;2.13;;
1370;SDS011;14306;49.942;11.570;2023-04-24T05:13:52;1.63;;;1.40;;
1370;SDS011;14306;49.942;11.570;2023-04-24T05:16:20;2.47;;;1.73;;
1370;SDS011;14306;49.942;11.570;2023-04-24T05:18:50;8.73;;;1.97;;
1370;SDS011;14306;49.942;11.570;2023-04-24T05:21:18;5.70;;;1.97;;
1370;SDS011;14306;49.942;11.570;2023-04-24T05:23:49;3.30;;;1.73;;
1370;SDS011;14306;49.942;11.570;2023-04-24T05:26:17;4.47;;;1.90;;
1370;SDS011;14306;49.942;11.570;2023-04-24T05:28:45;3.80;;;1.70;;
1370;SDS011;14306;49.942;11.570;2023-04-24T05:31:14;4.03;;;1.60;;
1370;SDS011;14306;49.942;11.570;2023-04-24T05:33:44;7.33;;;2.67;;
1370;SDS011;14306;49.942;11.570;2023-04-24T05:36:12;1.40;;;1.30;;
1370;SDS011;14306;49.942;11.570;2023-04-24T05:38:41;3.83;;;1.70;;
1370;SDS011;14306;49.942;11.570;2023-04-24T05:41:11;5.07;;;1.50;;
1370;SDS011;14306;49.942;11.570;2023-04-24T05:43:39;5.63;;;1.63;;
1370;SDS011;14306;49.942;11.570;2023-04-24T05:46:08;4.03;;;1.90;;
1370;SDS011;14306;49.942;11.570;2023-04-24T05:48:37;7.20;;;1.83;;
1370;SDS011;14306;49.942;11.570;2023-04-24T05:51:05;8.00;;;1.47;;
1370;SDS011;14306;49.942;11.570;2023-04-24T05:53:34;3.17;;;1.13;;
1370;SDS011;14306;49.942;11.570;2023-04-24T05:56:03;5.03;;;2.20;;
1370;SDS011;14306;49.942;11.570;2023-04-24T05:58:33;2.10;;;1.50;;
1370;SDS011;14306;49.942;11.570;2023-04-24T06:01:02;6.17;;;1.50;;
1370;SDS011;14306;49.942;11.570;2023-04-24T06:03:35;3.60;;;1.00;;
1370;SDS011;14306;49.942;11.570;2023-04-24T06:06:05;4.77;;;1.27;;
1370;SDS011;14306;49.942;11.570;2023-04-24T06:08:34;2.80;;;1.60;;
1370;SDS011;14306;49.942;11.570;2023-04-24T06:11:03;3.13;;;1.77;;
1370;SDS011;14306;49.942;11.570;2023-04-24T06:13:34;1.40;;;1.00;;
1370;SDS011;14306;49.942;11.570;2023-04-24T06:16:02;2.10;;;1.53;;
1370;SDS011;14306;49.942;11.570;2023-04-24T06:18:31;3.90;;;1.27;;
1370;SDS011;14306;49.942;11.570;2023-04-24T06:21:00;3.43;;;1.10;;
1370;SDS011;14306;49.942;11.570;2023-04-24T06:23:28;7.30;;;1.50;;
1370;SDS011;14306;49.942;11.570;2023-04-24T06:25:59;1.63;;;1.40;;
1370;SDS011;14306;49.942;11.570;2023-04-24T06:28:27;2.20;;;1.30;;
1370;SDS011;14306;49.942;11.570;2023-04-24T06:30:57;2.80;;;1.50;;
1370;SDS011;14306;49.942;11.570;2023-04-24T06:33:26;4.20;;;1.37;;
1370;SDS011;14306;49.942;11.570;2023-04-24T06:35:55;3.73;;;1.10;;
1370;SDS011;14306;49.942;11.570;2023-04-24T06:38:24;3.97;;;1.30;;
1370;SDS011;14306;49.942;11.570;2023-04-24T06:40:52;2.00;;;1.10;;
1370;SDS011;14306;49.942;11.570;2023-04-24T06:43:21;2.47;;;1.10;;
1370;SDS011;14306;49.942;11.570;2023-04-24T06:45:51;2.60;;;1.40;;
1370;SDS011;14306;49.942;11.570;2023-04-24T06:48:21;4.53;;;1.20;;
1370;SDS011;14306;49.942;11.570;2023-04-24T06:50:49;2.10;;;1.63;;
1370;SDS011;14306;49.942;11.570;2023-04-24T06:53:18;2.80;;;1.27;;
1370;SDS011;14306;49.942;11.570;2023-04-24T06:55:47;2.70;;;1.30;;
1370;SDS011;14306;49.942;11.570;2023-04-24T06:58:15;1.30;;;1.07;;
1370;SDS011;14306;49.942;11.570;2023-04-24T07:00:44;2.70;;;1.70;;
1370;SDS011;14306;49.942;11.570;2023-04-24T07:03:13;3.43;;;1.37;;
1370;SDS011;14306;49.942;11.570;2023-04-24T07:05:43;2.30;;;1.00;;
1370;SDS011;14306;49.942;11.570;2023-04-24T07:08:13;3.03;;;1.50;;
1370;SDS011;14306;49.942;11.570;2023-04-24T07:10:43;2.27;;;1.33;;
1370;SDS011;14306;49.942;11.570;2023-04-24T07:13:12;1.73;;;1.60;;
1370;SDS011;14306;49.942;11.570;2023-04-24T07:15:41;2.87;;;1.20;;
1370;SDS011;14306;49.942;11.570;2023-04-24T07:18:09;2.13;;;1.50;;
1370;SDS011;14306;49.942;11.570;2023-04-24T07:20:38;4.87;;;1.80;;
1370;SDS011;14306;49.942;11.570;2023-04-24T07:23:08;3.03;;;1.43;;
1370;SDS011;14306;49.942;11.570;2023-04-24T07:25:36;3.57;;;1.20;;
1370;SDS011;14306;49.942;11.570;2023-04-24T07:28:05;3.23;;;1.50;;
1370;SDS011;14306;49.942;11.570;2023-04-24T07:30:34;2.13;;;1.30;;
1370;SDS011;14306;49.942;11.570;2023-04-24T07:33:02;3.33;;;1.07;;
1370;SDS011;14306;49.942;11.570;2023-04-24T07:35:31;3.47;;;1.80;;
1370;SDS011;14306;49.942;11.570;2023-04-24T07:38:01;2.97;;;1.80;;
1370;SDS011;14306;49.942;11.570;2023-04-24T07:40:31;1.50;;;1.20;;
1370;SDS011;14306;49.942;11.570;2023-04-24T07:42:59;2.73;;;1.10;;
1370;SDS011;14306;49.942;11.570;2023-04-24T07:45:31;1.30;;;0.90;;
1370;SDS011;14306;49.942;11.570;2023-04-24T07:48:02;3.80;;;2.40;;
1370;SDS011;14306;49.942;11.570;2023-04-24T07:50:32;1.00;;;0.90;;
1370;SDS011;14306;49.942;11.570;2023-04-24T07:53:01;1.50;;;0.70;;
1370;SDS011;14306;49.942;11.570;2023-04-24T07:55:31;2.13;;;1.07;;
1370;SDS011;14306;49.942;11.570;2023-04-24T07:58:00;3.43;;;1.20;;
1370;SDS011;14306;49.942;11.570;2023-04-24T08:00:29;6.27;;;2.57;;
1370;SDS011;14306;49.942;11.570;2023-04-24T08:02:58;1.77;;;1.03;;
1370;SDS011;14306;49.942;11.570;2023-04-24T08:05:27;2.20;;;1.00;;
1370;SDS011;14306;49.942;11.570;2023-04-24T08:07:56;6.30;;;3.07;;
1370;SDS011;14306;49.942;11.570;2023-04-24T08:10:25;5.80;;;1.60;;
1370;SDS011;14306;49.942;11.570;2023-04-24T08:12:55;2.60;;;1.47;;
1370;SDS011;14306;49.942;11.570;2023-04-24T08:15:23;4.10;;;2.10;;
1370;SDS011;14306;49.942;11.570;2023-04-24T08:17:52;3.00;;;1.30;;
1370;SDS011;14306;49.942;11.570;2023-04-24T08:20:24;2.60;;;1.20;;
1370;SDS011;14306;49.942;11.570;2023-04-24T08:22:53;3.40;;;1.23;;
1370;SDS011;14306;49.942;11.570;2023-04-24T08:25:22;1.90;;;1.20;;
1370;SDS011;14306;49.942;11.570;2023-04-24T08:27:51;7.33;;;1.40;;
1370;SDS011;14306;49.942;11.570;2023-04-24T08:30:23;1.10;;;1.00;;
1370;SDS011;14306;49.942;11.570;2023-04-24T08:32:52;1.50;;;1.27;;
1370;SDS011;14306;49.942;11.570;2023-04-24T08:35:21;3.20;;;1.37;;
1370;SDS011;14306;49.942;11.570;2023-04-24T08:37:51;5.73;;;1.37;;
1370;SDS011;14306;49.942;11.570;2023-04-24T08:40:22;2.50;;;1.00;;
1370;SDS011;14306;49.942;11.570;2023-04-24T08:42:57;1.57;;;1.23;;
1370;SDS011;14306;49.942;11.570;2023-04-24T08:45:28;2.40;;;1.47;;
1370;SDS011;14306;49.942;11.570;2023-04-24T08:47:57;5.23;;;2.00;;
1370;SDS011;14306;49.942;11.570;2023-04-24T08:50:26;4.10;;;1.03;;
1370;SDS011;14306;49.942;11.570;2023-04-24T08:52:57;3.07;;;1.10;;
1370;SDS011;14306;49.942;11.570;2023-04-24T08:55:30;3.73;;;1.60;;
1370;SDS011;14306;49.942;11.570;2023-04-24T08:58:01;1.83;;;1.00;;
1370;SDS011;14306;49.942;11.570;2023-04-24T09:00:35;1.30;;;1.20;;
1370;SDS011;14306;49.942;11.570;2023-04-24T09:03:13;1.47;;;1.37;;
1370;SDS011;14306;49.942;11.570;2023-04-24T09:05:44;3.60;;;1.20;;
1370;SDS011;14306;49.942;11.570;2023-04-24T09:08:17;1.77;;;1.47;;
1370;SDS011;14306;49.942;11.570;2023-04-24T09:10:47;1.93;;;1.07;;
1370;SDS011;14306;49.942;11.570;2023-04-24T09:13:16;1.03;;;0.93;;
1370;SDS011;14306;49.942;11.570;2023-04-24T09:15:48;2.73;;;1.33;;
1370;SDS011;14306;49.942;11.570;2023-04-24T09:18:18;2.40;;;1.47;;
1370;SDS011;14306;49.942;11.570;2023-04-24T09:20:57;3.23;;;1.30;;
1370;SDS011;14306;49.942;11.570;2023-04-24T09:23:27;3.17;;;1.13;;
1370;SDS011;14306;49.942;11.570;2023-04-24T09:25:56;7.70;;;1.43;;
1370;SDS011;14306;49.942;11.570;2023-04-24T09:28:27;2.50;;;1.37;;
1370;SDS011;14306;49.942;11.570;2023-04-24T09:31:06;3.60;;;1.80;;
1370;SDS011;14306;49.942;11.570;2023-04-24T09:33:36;1.73;;;0.90;;
1370;SDS011;14306;49.942;11.570;2023-04-24T09:36:05;4.00;;;1.40;;
1370;SDS011;14306;49.942;11.570;2023-04-24T09:38:34;2.10;;;1.63;;
1370;SDS011;14306;49.942;11.570;2023-04-24T09:41:04;2.60;;;1.50;;
1370;SDS011;14306;49.942;11.570;2023-04-24T09:43:34;2.30;;;1.40;;
1370;SDS011;14306;49.942;11.570;2023-04-24T09:46:07;1.97;;;1.53;;
1370;SDS011;14306;49.942;11.570;2023-04-24T09:48:37;3.53;;;1.40;;
1370;SDS011;14306;49.942;11.570;2023-04-24T09:51:06;1.60;;;1.50;;
1370;SDS011;14306;49.942;11.570;2023-04-24T09:53:37;2.43;;;1.70;;
1370;SDS011;14306;49.942;11.570;2023-04-24T09:56:07;2.70;;;1.63;;
1370;SDS011;14306;49.942;11.570;2023-04-24T09:58:39;4.47;;;1.83;;
1370;SDS011;14306;49.942;11.570;2023-04-24T10:01:08;3.40;;;1.60;;
1370;SDS011;14306;49.942;11.570;2023-04-24T10:03:36;3.03;;;1.30;;
1370;SDS011;14306;49.942;11.570;2023-04-24T10:06:05;1.20;;;1.10;;
1370;SDS011;14306;49.942;11.570;2023-04-24T10:08:36;2.27;;;1.60;;
1370;SDS011;14306;49.942;11.570;2023-04-24T10:11:05;2.60;;;1.60;;
1370;SDS011;14306;49.942;11.570;2023-04-24T10:13:37;1.70;;;1.37;;
1370;SDS011;14306;49.942;11.570;2023-04-24T10:16:09;1.87;;;1.50;;
1370;SDS011;14306;49.942;11.570;2023-04-24T10:18:39;5.80;;;1.93;;
1370;SDS011;14306;49.942;11.570;2023-04-24T10:21:08;1.40;;;1.30;;
1370;SDS011;14306;49.942;11.570;2023-04-24T10:23:37;2.27;;;1.53;;
1370;SDS011;14306;49.942;11.570;2023-04-24T10:26:08;4.10;;;1.47;;
1370;SDS011;14306;49.942;11.570;2023-04-24T10:28:38;2.23;;;1.73;;
1370;SDS011;14306;49.942;11.570;2023-04-24T10:31:10;2.00;;;1.20;;
1370;SDS011;14306;49.942;11.570;2023-04-24T10:33:40;2.47;;;1.23;;
1370;SDS011;14306;49.942;11.570;2023-04-24T10:36:10;4.90;;;1.27;;
1370;SDS011;14306;49.942;11.570;2023-04-24T10:38:42;2.60;;;1.20;;
1370;SDS011;14306;49.942;11.570;2023-04-24T10:41:16;1.70;;;1.30;;
1370;SDS011;14306;49.942;11.570;2023-04-24T10:44:03;6.40;;;1.53;;
1370;SDS011;14306;49.942;11.570;2023-04-24T10:46:35;2.80;;;1.70;;
1370;SDS011;14306;49.942;11.570;2023-04-24T10:49:05;3.47;;;1.37;;
1370;SDS011;14306;49.942;11.570;2023-04-24T10:51:45;2.33;;;1.60;;
1370;SDS011;14306;49.942;11.570;2023-04-24T10:54:27;3.30;;;1.40;;
1370;SDS011;14306;49.942;11.570;2023-04-24T11:00:14;1.53;;;1.40;;
1370;SDS011;14306;49.942;11.570;2023-04-24T11:02:48;6.50;;;1.77;;
1370;SDS011;14306;49.942;11.570;2023-04-24T11:05:20;3.33;;;1.30;;
1370;SDS011;14306;49.942;11.570;2023-04-24T11:10:41;1.80;;;1.47;;
1370;SDS011;14306;49.942;11.570;2023-04-24T11:13:14;6.77;;;1.87;;
1370;SDS011;14306;49.942;11.570;2023-04-24T11:15:44;2.07;;;1.60;;
1370;SDS011;14306;49.942;11.570;2023-04-24T11:18:14;3.00;;;1.30;;
1370;SDS011;14306;49.942;11.570;2023-04-24T11:20:43;1.17;;;0.97;;
1370;SDS011;14306;49.942;11.570;2023-04-24T11:23:12;2.87;;;0.90;;
1370;SDS011;14306;49.942;11.570;2023-04-24T11:25:41;1.10;;;1.00;;
1370;SDS011;14306;49.942;11.570;2023-04-24T11:28:10;1.00;;;0.90;;
1370;SDS011;14306;49.942;11.570;2023-04-24T11:30:44;2.23;;;0.90;;
1370;SDS011;14306;49.942;11.570;2023-04-24T11:33:12;2.10;;;0.80;;
1370;SDS011;14306;49.942;11.570;2023-04-24T11:35:49;1.80;;;1.43;;
1370;SDS011;14306;49.942;11.570;2023-04-24T11:38:27;1.70;;;1.00;;
1370;SDS011;14306;49.942;11.570;2023-04-24T11:41:01;0.97;;;0.73;;
1370;SDS011;14306;49.942;11.570;2023-04-24T11:43:32;0.93;;;0.80;;
1370;SDS011;14306;49.942;11.570;2023-04-24T11:46:02;1.47;;;0.80;;
1370;SDS011;14306;49.942;11.570;2023-04-24T11:48:35;1.20;;;0.80;;
1370;SDS011;14306;49.942;11.570;2023-04-24T11:51:06;1.90;;;1.00;;
1370;SDS011;14306;49.942;11.570;2023-04-24T11:53:35;1.87;;;0.93;;
1370;SDS011;14306;49.942;11.570;2023-04-24T11:56:05;1.30;;;1.00;;
1370;SDS011;14306;49.942;11.570;2023-04-24T11:58:34;2.93;;;1.00;;
1370;SDS011;14306;49.942;11.570;2023-04-24T12:01:03;1.47;;;1.20;;
1370;SDS011;14306;49.942;11.570;2023-04-24T12:03:32;2.23;;;0.83;;
1370;SDS011;14306;49.942;11.570;2023-04-24T12:06:09;2.07;;;1.00;;
1370;SDS011;14306;49.942;11.570;2023-04-24T12:08:38;2.60;;;0.90;;
1370;SDS011;14306;49.942;11.570;2023-04-24T12:11:07;2.20;;;1.47;;
1370;SDS011;14306;49.942;11.570;2023-04-24T12:13:36;1.47;;;1.00;;
1370;SDS011;14306;49.942;11.570;2023-04-24T12:16:04;1.43;;;1.20;;
1370;SDS011;14306;49.942;11.570;2023-04-24T12:18:33;1.43;;;1.17;;
1370;SDS011;14306;49.942;11.570;2023-04-24T12:23:57;4.60;;;0.93;;
1370;SDS011;14306;49.942;11.570;2023-04-24T12:26:26;1.40;;;1.30;;
1370;SDS011;14306;49.942;11.570;2023-04-24T12:28:55;2.70;;;1.30;;
1370;SDS011;14306;49.942;11.570;2023-04-24T12:31:29;1.73;;;1.23;;
1370;SDS011;14306;49.942;11.570;2023-04-24T12:33:58;1.50;;;1.40;;
1370;SDS011;14306;49.942;11.570;2023-04-24T12:36:28;2.00;;;0.97;;
1370;SDS011;14306;49.942;11.570;2023-04-24T12:38:56;2.70;;;1.30;;
1370;SDS011;14306;49.942;11.570;2023-04-24T12:41:25;1.40;;;1.30;;
1370;SDS011;14306;49.942;11.570;2023-04-24T12:43:53;2.43;;;1.47;;
1370;SDS011;14306;49.942;11.570;2023-04-24T12:46:22;5.37;;;1.70;;
1370;SDS011;14306;49.942;11.570;2023-04-24T12:48:51;3.57;;;1.43;;
1370;SDS011;14306;49.942;11.570;2023-04-24T12:51:19;4.83;;;1.67;;
1370;SDS011;14306;49.942;11.570;2023-04-24T12:53:49;2.33;;;1.50;;
1370;SDS011;14306;49.942;11.570;2023-04-24T12:56:21;2.60;;;1.23;;
1370;SDS011;14306;49.942;11.570;2023-04-24T12:58:50;1.47;;;1.33;;
1370;SDS011;14306;49.942;11.570;2023-04-24T13:01:18;2.10;;;1.30;;
1370;SDS011;14306;49.942;11.570;2023-04-24T13:03:47;1.40;;;1.30;;
1370;SDS011;14306;49.942;11.570;2023-04-24T13:06:16;3.27;;;1.50;;
1370;SDS011;14306;49.942;11.570;2023-04-24T13:08:44;4.77;;;1.60;;
1370;SDS011;14306;49.942;11.570;2023-04-24T13:11:15;3.53;;;1.43;;
1370;SDS011;14306;49.942;11.570;2023-04-24T13:13:43;1.83;;;1.60;;
1370;SDS011;14306;49.942;11.570;2023-04-24T13:16:11;1.60;;;1.50;;
1370;SDS011;14306;49.942;11.570;2023-04-24T13:18:39;5.27;;;2.07;;
1370;SDS011;14306;49.942;11.570;2023-04-24T13:21:08;1.50;;;1.40;;
1370;SDS011;14306;49.942;11.570;2023-04-24T13:23:36;6.10;;;1.83;;
1370;SDS011;14306;49.942;11.570;2023-04-24T13:26:05;5.57;;;1.50;;
1370;SDS011;14306;49.942;11.570;2023-04-24T13:28:35;2.20;;;1.33;;
1370;SDS011;14306;49.942;11.570;2023-04-24T13:31:04;6.07;;;1.10;;
1370;SDS011;14306;49.942;11.570;2023-04-24T13:33:33;1.70;;;0.87;;
1370;SDS011;14306;49.942;11.570;2023-04-24T13:36:02;1.40;;;1.30;;
1370;SDS011;14306;49.942;11.570;2023-04-24T13:38:30;5.77;;;2.63;;
1370;SDS011;14306;49.942;11.570;2023-04-24T13:40:59;3.00;;;1.60;;
1370;SDS011;14306;49.942;11.570;2023-04-24T13:43:28;2.00;;;1.33;;
1370;SDS011;14306;49.942;11.570;2023-04-24T13:45:57;4.23;;;1.90;;
1370;SDS011;14306;49.942;11.570;2023-04-24T13:48:31;2.03;;;1.70;;
1370;SDS011;14306;49.942;11.570;2023-04-24T13:51:00;1.93;;;1.60;;
1370;SDS011;14306;49.942;11.570;2023-04-24T13:53:29;2.60;;;1.40;;
1370;SDS011;14306;49.942;11.570;2023-04-24T13:55:57;2.97;;;1.43;;
1370;SDS011;14306;49.942;11.570;2023-04-24T13:58:25;2.27;;;1.50;;
1370;SDS011;14306;49.942;11.570;2023-04-24T14:00:54;2.03;;;1.83;;
1370;SDS011;14306;49.942;11.570;2023-04-24T14:03:24;1.93;;;1.60;;
1370;SDS011;14306;49.942;11.570;2023-04-24T14:05:52;1.77;;;1.67;;
1370;SDS011;14306;49.942;11.570;2023-04-24T14:08:21;2.40;;;1.47;;
1370;SDS011;14306;49.942;11.570;2023-04-24T14:10:50;2.23;;;1.80;;
1370;SDS011;14306;49.942;11.570;2023-04-24T14:13:18;3.20;;;1.37;;
1370;SDS011;14306;49.942;11.570;2023-04-24T14:15:47;3.60;;;1.40;;
1370;SDS011;14306;49.942;11.570;2023-04-24T14:18:15;2.17;;;1.27;;
1370;SDS011;14306;49.942;11.570;2023-04-24T14:20:45;4.90;;;1.13;;
1370;SDS011;14306;49.942;11.570;2023-04-24T14:23:14;4.90;;;1.70;;
1370;SDS011;14306;49.942;11.570;2023-04-24T14:25:44;3.70;;;1.40;;
1370;SDS011;14306;49.942;11.570;2023-04-24T14:28:12;2.23;;;1.50;;
1370;SDS011;14306;49.942;11.570;2023-04-24T14:30:41;2.70;;;1.30;;
1370;SDS011;14306;49.942;11.570;2023-04-24T14:33:10;1.50;;;1.40;;
1370;SDS011;14306;49.942;11.570;2023-04-24T14:35:49;3.30;;;1.43;;
1370;SDS011;14306;49.942;11.570;2023-04-24T14:38:18;1.30;;;1.20;;
1370;SDS011;14306;49.942;11.570;2023-04-24T14:40:49;2.50;;;1.73;;
1370;SDS011;14306;49.942;11.570;2023-04-24T14:43:23;1.37;;;1.27;;
1370;SDS011;14306;49.942;11.570;2023-04-24T14:45:56;3.63;;;1.27;;
1370;SDS011;14306;49.942;11.570;2023-04-24T14:48:26;2.83;;;1.10;;
1370;SDS011;14306;49.942;11.570;2023-04-24T14:51:05;1.13;;;1.03;;
1370;SDS011;14306;49.942;11.570;2023-04-24T14:57:22;3.10;;;1.43;;
1370;SDS011;14306;49.942;11.570;2023-04-24T14:59:51;2.03;;;1.37;;
1370;SDS011;14306;49.942;11.570;2023-04-24T15:02:21;1.93;;;1.67;;
1370;SDS011;14306;49.942;11.570;2023-04-24T15:04:50;2.53;;;2.07;;
1370;SDS011;14306;49.942;11.570;2023-04-24T15:07:23;4.20;;;2.53;;
1370;SDS011;14306;49.942;11.570;2023-04-24T15:09:52;4.07;;;2.90;;
1370;SDS011;14306;49.942;11.570;2023-04-24T15:12:21;5.10;;;2.80;;
1370;SDS011;14306;49.942;11.570;2023-04-24T15:14:49;2.90;;;2.70;;